sensor_id;sensor_type;location;lat;lon;timestamp;P1;durP1;ratioP1;P2;durP2;ratioP2
79664;SDS011;69132;44.014;20.918;2023-05-29T00:00:50;12.10;;;10.45;;
79664;SDS011;69132;44.014;20.918;2023-05-29T00:03:17;13.75;;;10.55;;
79664;SDS011;69132;44.014;20.918;2023-05-29T00:05:43;12.25;;;10.65;;
79664;SDS011;69132;44.014;20.918;2023-05-29T00:08:09;12.18;;;10.18;;
79664;SDS011;69132;44.014;20.918;2023-05-29T00:10:35;12.30;;;10.80;;
79664;SDS011;69132;44.014;20.918;2023-05-29T00:13:02;13.32;;;9.80;;
79664;SDS011;69132;44.014;20.918;2023-05-29T00:15:28;15.00;;;10.50;;
79664;SDS011;69132;44.014;20.918;2023-05-29T00:17:55;12.90;;;11.02;;
79664;SDS011;69132;44.014;20.918;2023-05-29T00:20:21;13.25;;;11.18;;
79664;SDS011;69132;44.014;20.918;2023-05-29T00:22:47;15.18;;;12.55;;
79664;SDS011;69132;44.014;20.918;2023-05-29T00:25:14;15.50;;;12.32;;
79664;SDS011;69132;44.014;20.918;2023-05-29T00:27:41;12.55;;;10.75;;
79664;SDS011;69132;44.014;20.918;2023-05-29T00:30:07;13.35;;;11.68;;
79664;SDS011;69132;44.014;20.918;2023-05-29T00:32:34;14.43;;;11.52;;
79664;SDS011;69132;44.014;20.918;2023-05-29T00:35:01;13.15;;;11.55;;
79664;SDS011;69132;44.014;20.918;2023-05-29T00:37:27;19.63;;;12.75;;
79664;SDS011;69132;44.014;20.918;2023-05-29T00:39:54;14.40;;;11.95;;
79664;SDS011;69132;44.014;20.918;2023-05-29T00:42:20;12.70;;;10.00;;
79664;SDS011;69132;44.014;20.918;2023-05-29T00:44:46;13.00;;;10.65;;
79664;SDS011;69132;44.014;20.918;2023-05-29T00:47:12;10.18;;;9.18;;
79664;SDS011;69132;44.014;20.918;2023-05-29T00:49:38;12.50;;;10.35;;
79664;SDS011;69132;44.014;20.918;2023-05-29T00:52:05;19.55;;;16.60;;
79664;SDS011;69132;44.014;20.918;2023-05-29T00:56:59;17.10;;;11.35;;
79664;SDS011;69132;44.014;20.918;2023-05-29T00:59:26;13.43;;;10.82;;
79664;SDS011;69132;44.014;20.918;2023-05-29T01:01:53;14.00;;;9.98;;
79664;SDS011;69132;44.014;20.918;2023-05-29T01:04:20;12.63;;;10.85;;
79664;SDS011;69132;44.014;20.918;2023-05-29T01:06:46;14.98;;;10.60;;
79664;SDS011;69132;44.014;20.918;2023-05-29T01:09:12;13.05;;;10.00;;
79664;SDS011;69132;44.014;20.918;2023-05-29T01:14:06;13.18;;;10.00;;
79664;SDS011;69132;44.014;20.918;2023-05-29T01:22:01;12.75;;;11.25;;
79664;SDS011;69132;44.014;20.918;2023-05-29T01:27:00;12.07;;;10.60;;
79664;SDS011;69132;44.014;20.918;2023-05-29T01:29:28;13.02;;;10.50;;
79664;SDS011;69132;44.014;20.918;2023-05-29T01:31:56;11.82;;;9.85;;
79664;SDS011;69132;44.014;20.918;2023-05-29T01:34:23;10.10;;;8.95;;
79664;SDS011;69132;44.014;20.918;2023-05-29T01:36:49;10.65;;;9.25;;
79664;SDS011;69132;44.014;20.918;2023-05-29T01:39:15;12.65;;;9.57;;
79664;SDS011;69132;44.014;20.918;2023-05-29T01:41:44;11.05;;;9.25;;
79664;SDS011;69132;44.014;20.918;2023-05-29T01:44:10;11.02;;;9.88;;
79664;SDS011;69132;44.014;20.918;2023-05-29T01:46:38;11.43;;;10.25;;
79664;SDS011;69132;44.014;20.918;2023-05-29T01:49:05;11.82;;;10.02;;
79664;SDS011;69132;44.014;20.918;2023-05-29T01:51:31;12.30;;;9.68;;
79664;SDS011;69132;44.014;20.918;2023-05-29T01:53:57;11.07;;;9.80;;
79664;SDS011;69132;44.014;20.918;2023-05-29T01:56:25;11.82;;;9.90;;
79664;SDS011;69132;44.014;20.918;2023-05-29T01:58:52;12.68;;;9.50;;
79664;SDS011;69132;44.014;20.918;2023-05-29T02:01:21;12.05;;;10.73;;
79664;SDS011;69132;44.014;20.918;2023-05-29T02:03:48;12.15;;;10.82;;
79664;SDS011;69132;44.014;20.918;2023-05-29T02:06:14;11.65;;;10.30;;
79664;SDS011;69132;44.014;20.918;2023-05-29T02:08:40;10.95;;;9.77;;
79664;SDS011;69132;44.014;20.918;2023-05-29T02:11:06;12.15;;;10.90;;
79664;SDS011;69132;44.014;20.918;2023-05-29T02:13:32;10.95;;;9.30;;
79664;SDS011;69132;44.014;20.918;2023-05-29T02:15:58;12.80;;;10.35;;
79664;SDS011;69132;44.014;20.918;2023-05-29T02:18:24;11.45;;;9.68;;
79664;SDS011;69132;44.014;20.918;2023-05-29T02:20:50;12.90;;;10.10;;
79664;SDS011;69132;44.014;20.918;2023-05-29T02:23:16;13.40;;;10.00;;
79664;SDS011;69132;44.014;20.918;2023-05-29T02:25:44;11.32;;;10.10;;
79664;SDS011;69132;44.014;20.918;2023-05-29T02:28:10;14.68;;;9.82;;
79664;SDS011;69132;44.014;20.918;2023-05-29T02:30:37;13.05;;;11.07;;
79664;SDS011;69132;44.014;20.918;2023-05-29T02:33:03;12.73;;;10.05;;
79664;SDS011;69132;44.014;20.918;2023-05-29T02:35:29;12.90;;;11.35;;
79664;SDS011;69132;44.014;20.918;2023-05-29T02:37:55;15.52;;;11.68;;
79664;SDS011;69132;44.014;20.918;2023-05-29T02:40:21;13.07;;;11.68;;
79664;SDS011;69132;44.014;20.918;2023-05-29T02:42:48;16.90;;;12.45;;
79664;SDS011;69132;44.014;20.918;2023-05-29T02:45:14;13.57;;;11.70;;
79664;SDS011;69132;44.014;20.918;2023-05-29T02:47:40;13.82;;;10.90;;
79664;SDS011;69132;44.014;20.918;2023-05-29T02:50:08;19.58;;;16.35;;
79664;SDS011;69132;44.014;20.918;2023-05-29T02:52:34;15.30;;;13.63;;
79664;SDS011;69132;44.014;20.918;2023-05-29T02:55:01;16.48;;;13.57;;
79664;SDS011;69132;44.014;20.918;2023-05-29T02:57:29;26.55;;;19.10;;
79664;SDS011;69132;44.014;20.918;2023-05-29T02:59:55;21.95;;;17.17;;
79664;SDS011;69132;44.014;20.918;2023-05-29T03:02:21;22.08;;;17.08;;
79664;SDS011;69132;44.014;20.918;2023-05-29T03:04:48;37.65;;;16.63;;
79664;SDS011;69132;44.014;20.918;2023-05-29T03:07:16;25.75;;;15.52;;
79664;SDS011;69132;44.014;20.918;2023-05-29T03:09:42;26.05;;;17.10;;
79664;SDS011;69132;44.014;20.918;2023-05-29T03:12:08;23.70;;;17.50;;
79664;SDS011;69132;44.014;20.918;2023-05-29T03:14:36;27.80;;;19.85;;
79664;SDS011;69132;44.014;20.918;2023-05-29T03:17:06;28.40;;;20.00;;
79664;SDS011;69132;44.014;20.918;2023-05-29T03:19:32;24.30;;;18.77;;
79664;SDS011;69132;44.014;20.918;2023-05-29T03:21:58;22.17;;;16.35;;
79664;SDS011;69132;44.014;20.918;2023-05-29T03:24:24;22.88;;;16.75;;
79664;SDS011;69132;44.014;20.918;2023-05-29T03:26:50;20.85;;;15.00;;
79664;SDS011;69132;44.014;20.918;2023-05-29T03:29:17;20.88;;;14.57;;
79664;SDS011;69132;44.014;20.918;2023-05-29T03:31:43;16.67;;;12.38;;
79664;SDS011;69132;44.014;20.918;2023-05-29T03:34:09;17.60;;;14.30;;
79664;SDS011;69132;44.014;20.918;2023-05-29T03:36:35;19.90;;;14.02;;
79664;SDS011;69132;44.014;20.918;2023-05-29T03:39:02;15.25;;;11.43;;
79664;SDS011;69132;44.014;20.918;2023-05-29T03:41:28;13.63;;;11.80;;
79664;SDS011;69132;44.014;20.918;2023-05-29T03:43:54;11.48;;;10.27;;
79664;SDS011;69132;44.014;20.918;2023-05-29T03:46:20;11.82;;;10.02;;
79664;SDS011;69132;44.014;20.918;2023-05-29T03:48:46;16.27;;;10.65;;
79664;SDS011;69132;44.014;20.918;2023-05-29T03:51:12;11.18;;;10.00;;
79664;SDS011;69132;44.014;20.918;2023-05-29T03:53:40;13.02;;;9.77;;
79664;SDS011;69132;44.014;20.918;2023-05-29T03:56:06;13.68;;;10.15;;
79664;SDS011;69132;44.014;20.918;2023-05-29T03:58:33;10.75;;;9.43;;
79664;SDS011;69132;44.014;20.918;2023-05-29T04:03:27;15.80;;;11.25;;
79664;SDS011;69132;44.014;20.918;2023-05-29T04:05:54;13.52;;;11.07;;
79664;SDS011;69132;44.014;20.918;2023-05-29T04:08:21;13.27;;;10.77;;
79664;SDS011;69132;44.014;20.918;2023-05-29T04:10:47;17.00;;;10.98;;
79664;SDS011;69132;44.014;20.918;2023-05-29T04:13:14;12.55;;;10.38;;
79664;SDS011;69132;44.014;20.918;2023-05-29T04:15:40;14.30;;;10.35;;
79664;SDS011;69132;44.014;20.918;2023-05-29T04:18:07;20.20;;;11.38;;
79664;SDS011;69132;44.014;20.918;2023-05-29T04:20:33;15.63;;;11.27;;
79664;SDS011;69132;44.014;20.918;2023-05-29T04:22:59;20.70;;;11.43;;
79664;SDS011;69132;44.014;20.918;2023-05-29T04:25:25;12.15;;;10.75;;
79664;SDS011;69132;44.014;20.918;2023-05-29T04:27:51;12.65;;;10.32;;
79664;SDS011;69132;44.014;20.918;2023-05-29T04:30:17;13.85;;;10.40;;
79664;SDS011;69132;44.014;20.918;2023-05-29T04:32:43;11.85;;;10.38;;
79664;SDS011;69132;44.014;20.918;2023-05-29T04:35:10;11.32;;;9.10;;
79664;SDS011;69132;44.014;20.918;2023-05-29T04:37:36;11.75;;;10.07;;
79664;SDS011;69132;44.014;20.918;2023-05-29T04:40:08;13.52;;;10.88;;
79664;SDS011;69132;44.014;20.918;2023-05-29T04:42:38;12.50;;;10.30;;
79664;SDS011;69132;44.014;20.918;2023-05-29T04:45:07;11.07;;;9.80;;
79664;SDS011;69132;44.014;20.918;2023-05-29T04:47:35;13.73;;;11.18;;
79664;SDS011;69132;44.014;20.918;2023-05-29T04:50:15;12.35;;;10.00;;
79664;SDS011;69132;44.014;20.918;2023-05-29T04:52:42;13.40;;;11.05;;
79664;SDS011;69132;44.014;20.918;2023-05-29T04:55:09;12.55;;;11.20;;
79664;SDS011;69132;44.014;20.918;2023-05-29T04:57:35;14.63;;;10.80;;
79664;SDS011;69132;44.014;20.918;2023-05-29T05:00:02;13.85;;;11.10;;
79664;SDS011;69132;44.014;20.918;2023-05-29T05:02:39;17.08;;;10.75;;
79664;SDS011;69132;44.014;20.918;2023-05-29T05:05:05;12.32;;;10.73;;
79664;SDS011;69132;44.014;20.918;2023-05-29T05:07:31;11.45;;;10.27;;
79664;SDS011;69132;44.014;20.918;2023-05-29T05:09:58;19.58;;;16.85;;
79664;SDS011;69132;44.014;20.918;2023-05-29T05:12:24;15.88;;;12.13;;
79664;SDS011;69132;44.014;20.918;2023-05-29T05:14:52;14.82;;;11.10;;
79664;SDS011;69132;44.014;20.918;2023-05-29T05:17:18;14.27;;;10.63;;
79664;SDS011;69132;44.014;20.918;2023-05-29T05:19:45;9.77;;;8.82;;
79664;SDS011;69132;44.014;20.918;2023-05-29T05:22:11;14.07;;;10.35;;
79664;SDS011;69132;44.014;20.918;2023-05-29T05:24:37;12.05;;;9.68;;
79664;SDS011;69132;44.014;20.918;2023-05-29T05:27:03;13.10;;;9.43;;
79664;SDS011;69132;44.014;20.918;2023-05-29T05:29:30;11.25;;;8.68;;
79664;SDS011;69132;44.014;20.918;2023-05-29T05:31:56;11.80;;;9.43;;
79664;SDS011;69132;44.014;20.918;2023-05-29T05:34:22;10.57;;;8.88;;
79664;SDS011;69132;44.014;20.918;2023-05-29T05:36:48;11.20;;;9.18;;
79664;SDS011;69132;44.014;20.918;2023-05-29T05:39:14;12.82;;;9.90;;
79664;SDS011;69132;44.014;20.918;2023-05-29T05:41:40;14.90;;;10.15;;
79664;SDS011;69132;44.014;20.918;2023-05-29T05:44:06;11.20;;;9.38;;
79664;SDS011;69132;44.014;20.918;2023-05-29T05:46:32;10.30;;;9.13;;
79664;SDS011;69132;44.014;20.918;2023-05-29T05:48:59;13.75;;;9.70;;
79664;SDS011;69132;44.014;20.918;2023-05-29T05:51:26;13.95;;;9.25;;
79664;SDS011;69132;44.014;20.918;2023-05-29T05:53:53;9.85;;;8.57;;
79664;SDS011;69132;44.014;20.918;2023-05-29T05:56:20;12.17;;;9.30;;
79664;SDS011;69132;44.014;20.918;2023-05-29T05:58:47;18.00;;;10.95;;
79664;SDS011;69132;44.014;20.918;2023-05-29T06:01:15;12.25;;;9.30;;
79664;SDS011;69132;44.014;20.918;2023-05-29T06:03:41;21.25;;;15.68;;
79664;SDS011;69132;44.014;20.918;2023-05-29T06:06:07;15.88;;;12.63;;
79664;SDS011;69132;44.014;20.918;2023-05-29T06:08:38;14.85;;;11.35;;
79664;SDS011;69132;44.014;20.918;2023-05-29T06:11:06;13.50;;;9.07;;
79664;SDS011;69132;44.014;20.918;2023-05-29T06:13:32;17.63;;;13.07;;
79664;SDS011;69132;44.014;20.918;2023-05-29T06:15:58;15.07;;;10.23;;
79664;SDS011;69132;44.014;20.918;2023-05-29T06:18:24;16.92;;;11.10;;
79664;SDS011;69132;44.014;20.918;2023-05-29T06:20:52;12.50;;;10.38;;
79664;SDS011;69132;44.014;20.918;2023-05-29T06:23:18;15.40;;;10.40;;
79664;SDS011;69132;44.014;20.918;2023-05-29T06:25:44;14.30;;;8.93;;
79664;SDS011;69132;44.014;20.918;2023-05-29T06:28:10;10.98;;;9.60;;
79664;SDS011;69132;44.014;20.918;2023-05-29T06:30:38;15.95;;;10.38;;
79664;SDS011;69132;44.014;20.918;2023-05-29T06:33:05;12.65;;;9.85;;
79664;SDS011;69132;44.014;20.918;2023-05-29T06:35:31;12.30;;;9.15;;
79664;SDS011;69132;44.014;20.918;2023-05-29T06:38:09;9.00;;;7.47;;
79664;SDS011;69132;44.014;20.918;2023-05-29T06:40:36;17.48;;;10.55;;
79664;SDS011;69132;44.014;20.918;2023-05-29T06:43:05;11.80;;;8.60;;
79664;SDS011;69132;44.014;20.918;2023-05-29T06:45:34;10.93;;;8.90;;
79664;SDS011;69132;44.014;20.918;2023-05-29T06:48:01;10.57;;;9.45;;
79664;SDS011;69132;44.014;20.918;2023-05-29T06:50:27;18.98;;;9.43;;
79664;SDS011;69132;44.014;20.918;2023-05-29T06:52:53;12.55;;;9.45;;
79664;SDS011;69132;44.014;20.918;2023-05-29T06:55:20;13.18;;;10.57;;
79664;SDS011;69132;44.014;20.918;2023-05-29T06:57:46;12.68;;;10.88;;
79664;SDS011;69132;44.014;20.918;2023-05-29T07:00:12;16.08;;;12.00;;
79664;SDS011;69132;44.014;20.918;2023-05-29T07:02:38;11.88;;;8.35;;
79664;SDS011;69132;44.014;20.918;2023-05-29T07:05:05;11.77;;;8.18;;
79664;SDS011;69132;44.014;20.918;2023-05-29T07:07:33;10.73;;;8.82;;
79664;SDS011;69132;44.014;20.918;2023-05-29T07:09:59;12.33;;;8.03;;
79664;SDS011;69132;44.014;20.918;2023-05-29T07:12:26;10.65;;;7.70;;
79664;SDS011;69132;44.014;20.918;2023-05-29T07:14:52;10.30;;;7.97;;
79664;SDS011;69132;44.014;20.918;2023-05-29T07:17:18;17.90;;;9.55;;
79664;SDS011;69132;44.014;20.918;2023-05-29T07:19:44;10.20;;;8.80;;
79664;SDS011;69132;44.014;20.918;2023-05-29T07:22:11;10.25;;;7.80;;
79664;SDS011;69132;44.014;20.918;2023-05-29T07:24:37;8.27;;;6.85;;
79664;SDS011;69132;44.014;20.918;2023-05-29T07:27:03;10.30;;;7.82;;
79664;SDS011;69132;44.014;20.918;2023-05-29T07:29:30;9.18;;;8.18;;
79664;SDS011;69132;44.014;20.918;2023-05-29T07:31:56;8.50;;;7.53;;
79664;SDS011;69132;44.014;20.918;2023-05-29T07:34:22;11.95;;;8.60;;
79664;SDS011;69132;44.014;20.918;2023-05-29T07:39:23;11.35;;;8.50;;
79664;SDS011;69132;44.014;20.918;2023-05-29T07:41:49;10.50;;;7.88;;
79664;SDS011;69132;44.014;20.918;2023-05-29T07:44:15;9.10;;;7.57;;
79664;SDS011;69132;44.014;20.918;2023-05-29T07:46:41;8.48;;;7.30;;
79664;SDS011;69132;44.014;20.918;2023-05-29T07:49:07;13.25;;;8.93;;
79664;SDS011;69132;44.014;20.918;2023-05-29T07:51:35;9.63;;;8.25;;
79664;SDS011;69132;44.014;20.918;2023-05-29T07:54:02;11.48;;;8.18;;
79664;SDS011;69132;44.014;20.918;2023-05-29T07:56:28;9.85;;;8.02;;
79664;SDS011;69132;44.014;20.918;2023-05-29T07:58:54;9.85;;;7.43;;
79664;SDS011;69132;44.014;20.918;2023-05-29T08:01:20;9.93;;;8.20;;
79664;SDS011;69132;44.014;20.918;2023-05-29T08:03:48;9.15;;;7.32;;
79664;SDS011;69132;44.014;20.918;2023-05-29T08:06:14;10.83;;;7.83;;
79664;SDS011;69132;44.014;20.918;2023-05-29T08:08:40;9.70;;;7.85;;
79664;SDS011;69132;44.014;20.918;2023-05-29T08:11:08;8.07;;;7.20;;
79664;SDS011;69132;44.014;20.918;2023-05-29T08:13:34;8.60;;;7.07;;
79664;SDS011;69132;44.014;20.918;2023-05-29T08:16:00;10.05;;;7.70;;
79664;SDS011;69132;44.014;20.918;2023-05-29T08:18:29;14.57;;;8.98;;
79664;SDS011;69132;44.014;20.918;2023-05-29T08:20:56;12.75;;;10.02;;
79664;SDS011;69132;44.014;20.918;2023-05-29T08:23:22;11.32;;;7.68;;
79664;SDS011;69132;44.014;20.918;2023-05-29T08:25:48;10.85;;;7.05;;
79664;SDS011;69132;44.014;20.918;2023-05-29T08:28:15;8.18;;;7.25;;
79664;SDS011;69132;44.014;20.918;2023-05-29T08:30:42;9.68;;;7.95;;
79664;SDS011;69132;44.014;20.918;2023-05-29T08:33:08;8.73;;;7.78;;
79664;SDS011;69132;44.014;20.918;2023-05-29T08:35:34;7.70;;;6.80;;
79664;SDS011;69132;44.014;20.918;2023-05-29T08:38:00;8.52;;;7.30;;
79664;SDS011;69132;44.014;20.918;2023-05-29T08:40:26;8.40;;;6.80;;
79664;SDS011;69132;44.014;20.918;2023-05-29T08:43:28;10.77;;;7.22;;
79664;SDS011;69132;44.014;20.918;2023-05-29T08:45:45;9.95;;;6.85;;
79664;SDS011;69132;44.014;20.918;2023-05-29T08:48:11;10.52;;;7.60;;
79664;SDS011;69132;44.014;20.918;2023-05-29T08:50:46;12.15;;;8.52;;
79664;SDS011;69132;44.014;20.918;2023-05-29T08:53:14;8.15;;;6.45;;
79664;SDS011;69132;44.014;20.918;2023-05-29T08:55:41;8.35;;;6.85;;
79664;SDS011;69132;44.014;20.918;2023-05-29T08:58:08;7.70;;;6.97;;
79664;SDS011;69132;44.014;20.918;2023-05-29T09:00:36;10.90;;;7.53;;
79664;SDS011;69132;44.014;20.918;2023-05-29T09:03:07;11.82;;;7.88;;
79664;SDS011;69132;44.014;20.918;2023-05-29T09:05:33;11.27;;;8.75;;
79664;SDS011;69132;44.014;20.918;2023-05-29T09:08:04;10.00;;;8.40;;
79664;SDS011;69132;44.014;20.918;2023-05-29T09:10:31;11.82;;;9.07;;
79664;SDS011;69132;44.014;20.918;2023-05-29T09:12:59;21.25;;;15.82;;
79664;SDS011;69132;44.014;20.918;2023-05-29T09:15:25;12.77;;;9.90;;
79664;SDS011;69132;44.014;20.918;2023-05-29T09:17:52;8.98;;;7.95;;
79664;SDS011;69132;44.014;20.918;2023-05-29T09:20:23;9.80;;;8.27;;
79664;SDS011;69132;44.014;20.918;2023-05-29T09:22:58;11.52;;;8.90;;
79664;SDS011;69132;44.014;20.918;2023-05-29T09:25:26;9.18;;;7.82;;
79664;SDS011;69132;44.014;20.918;2023-05-29T09:27:56;8.90;;;7.95;;
79664;SDS011;69132;44.014;20.918;2023-05-29T09:30:35;15.00;;;10.85;;
79664;SDS011;69132;44.014;20.918;2023-05-29T09:33:02;10.23;;;8.77;;
79664;SDS011;69132;44.014;20.918;2023-05-29T09:38:20;11.05;;;7.63;;
79664;SDS011;69132;44.014;20.918;2023-05-29T09:40:47;9.80;;;7.70;;
79664;SDS011;69132;44.014;20.918;2023-05-29T09:43:15;9.47;;;8.47;;
79664;SDS011;69132;44.014;20.918;2023-05-29T09:45:42;11.43;;;8.38;;
79664;SDS011;69132;44.014;20.918;2023-05-29T09:48:22;21.13;;;14.13;;
79664;SDS011;69132;44.014;20.918;2023-05-29T09:50:48;13.23;;;11.02;;
79664;SDS011;69132;44.014;20.918;2023-05-29T09:53:23;10.38;;;8.13;;
79664;SDS011;69132;44.014;20.918;2023-05-29T09:55:50;8.48;;;7.32;;
79664;SDS011;69132;44.014;20.918;2023-05-29T09:58:19;9.73;;;7.72;;
79664;SDS011;69132;44.014;20.918;2023-05-29T10:00:46;8.95;;;7.43;;
79664;SDS011;69132;44.014;20.918;2023-05-29T10:03:13;8.82;;;7.00;;
79664;SDS011;69132;44.014;20.918;2023-05-29T10:05:40;8.32;;;7.05;;
79664;SDS011;69132;44.014;20.918;2023-05-29T10:08:13;19.17;;;16.05;;
79664;SDS011;69132;44.014;20.918;2023-05-29T10:10:43;13.32;;;11.77;;
79664;SDS011;69132;44.014;20.918;2023-05-29T10:13:11;9.40;;;7.40;;
79664;SDS011;69132;44.014;20.918;2023-05-29T10:15:39;11.55;;;7.25;;
79664;SDS011;69132;44.014;20.918;2023-05-29T10:18:07;7.57;;;6.80;;
79664;SDS011;69132;44.014;20.918;2023-05-29T10:20:37;9.60;;;8.20;;
79664;SDS011;69132;44.014;20.918;2023-05-29T10:23:04;9.93;;;8.18;;
79664;SDS011;69132;44.014;20.918;2023-05-29T10:25:30;8.35;;;7.03;;
79664;SDS011;69132;44.014;20.918;2023-05-29T10:27:58;8.43;;;7.28;;
79664;SDS011;69132;44.014;20.918;2023-05-29T10:38:20;7.38;;;6.60;;
79664;SDS011;69132;44.014;20.918;2023-05-29T10:40:47;6.70;;;6.00;;
79664;SDS011;69132;44.014;20.918;2023-05-29T10:45:58;11.07;;;6.13;;
79664;SDS011;69132;44.014;20.918;2023-05-29T10:50:53;16.00;;;10.13;;
79664;SDS011;69132;44.014;20.918;2023-05-29T10:53:26;7.03;;;6.32;;
79664;SDS011;69132;44.014;20.918;2023-05-29T10:55:56;9.20;;;8.10;;
79664;SDS011;69132;44.014;20.918;2023-05-29T10:58:26;7.65;;;6.40;;
79664;SDS011;69132;44.014;20.918;2023-05-29T11:00:53;8.50;;;6.43;;
79664;SDS011;69132;44.014;20.918;2023-05-29T11:03:23;6.75;;;6.03;;
79664;SDS011;69132;44.014;20.918;2023-05-29T11:06:00;7.07;;;6.37;;
79664;SDS011;69132;44.014;20.918;2023-05-29T11:08:45;6.32;;;5.72;;
79664;SDS011;69132;44.014;20.918;2023-05-29T11:11:13;7.93;;;6.55;;
79664;SDS011;69132;44.014;20.918;2023-05-29T11:13:39;6.82;;;5.80;;
79664;SDS011;69132;44.014;20.918;2023-05-29T11:18:55;9.38;;;5.97;;
79664;SDS011;69132;44.014;20.918;2023-05-29T11:21:22;7.90;;;5.70;;
79664;SDS011;69132;44.014;20.918;2023-05-29T11:23:52;5.50;;;5.00;;
79664;SDS011;69132;44.014;20.918;2023-05-29T11:26:19;7.63;;;5.38;;
79664;SDS011;69132;44.014;20.918;2023-05-29T11:28:45;7.50;;;6.68;;
79664;SDS011;69132;44.014;20.918;2023-05-29T11:31:12;6.22;;;5.63;;
79664;SDS011;69132;44.014;20.918;2023-05-29T11:33:39;8.70;;;6.05;;
79664;SDS011;69132;44.014;20.918;2023-05-29T11:36:09;10.35;;;5.45;;
79664;SDS011;69132;44.014;20.918;2023-05-29T11:38:37;6.47;;;4.97;;
79664;SDS011;69132;44.014;20.918;2023-05-29T11:41:03;7.75;;;4.55;;
79664;SDS011;69132;44.014;20.918;2023-05-29T11:43:29;7.78;;;5.10;;
79664;SDS011;69132;44.014;20.918;2023-05-29T11:45:55;7.40;;;5.78;;
79664;SDS011;69132;44.014;20.918;2023-05-29T11:48:21;9.57;;;6.13;;
79664;SDS011;69132;44.014;20.918;2023-05-29T11:50:48;6.05;;;5.47;;
79664;SDS011;69132;44.014;20.918;2023-05-29T11:53:15;6.80;;;6.15;;
79664;SDS011;69132;44.014;20.918;2023-05-29T11:55:41;7.43;;;5.82;;
79664;SDS011;69132;44.014;20.918;2023-05-29T11:58:08;7.00;;;6.30;;
79664;SDS011;69132;44.014;20.918;2023-05-29T12:00:35;7.38;;;6.18;;
79664;SDS011;69132;44.014;20.918;2023-05-29T12:03:02;7.70;;;6.63;;
79664;SDS011;69132;44.014;20.918;2023-05-29T12:05:32;7.95;;;7.20;;
79664;SDS011;69132;44.014;20.918;2023-05-29T12:07:58;7.35;;;5.90;;
79664;SDS011;69132;44.014;20.918;2023-05-29T12:10:29;6.95;;;5.80;;
79664;SDS011;69132;44.014;20.918;2023-05-29T12:13:00;8.10;;;5.90;;
79664;SDS011;69132;44.014;20.918;2023-05-29T12:15:26;6.85;;;6.15;;
79664;SDS011;69132;44.014;20.918;2023-05-29T12:17:53;8.68;;;5.93;;
79664;SDS011;69132;44.014;20.918;2023-05-29T12:20:21;8.57;;;5.53;;
79664;SDS011;69132;44.014;20.918;2023-05-29T12:25:17;8.20;;;7.03;;
79664;SDS011;69132;44.014;20.918;2023-05-29T12:27:44;9.65;;;6.20;;
79664;SDS011;69132;44.014;20.918;2023-05-29T12:32:39;8.35;;;6.43;;
79664;SDS011;69132;44.014;20.918;2023-05-29T12:35:10;8.30;;;6.65;;
79664;SDS011;69132;44.014;20.918;2023-05-29T12:37:47;7.47;;;6.78;;
79664;SDS011;69132;44.014;20.918;2023-05-29T12:40:16;10.43;;;6.78;;
79664;SDS011;69132;44.014;20.918;2023-05-29T12:42:42;8.13;;;6.00;;
79664;SDS011;69132;44.014;20.918;2023-05-29T12:45:09;6.00;;;5.22;;
79664;SDS011;69132;44.014;20.918;2023-05-29T12:47:35;6.53;;;5.72;;
79664;SDS011;69132;44.014;20.918;2023-05-29T12:50:44;6.88;;;6.03;;
79664;SDS011;69132;44.014;20.918;2023-05-29T12:52:54;7.22;;;5.90;;
79664;SDS011;69132;44.014;20.918;2023-05-29T12:55:21;9.18;;;5.60;;
79664;SDS011;69132;44.014;20.918;2023-05-29T12:57:48;6.55;;;5.85;;
79664;SDS011;69132;44.014;20.918;2023-05-29T13:00:15;8.57;;;5.68;;
79664;SDS011;69132;44.014;20.918;2023-05-29T13:02:41;5.07;;;4.57;;
79664;SDS011;69132;44.014;20.918;2023-05-29T13:05:07;4.97;;;4.47;;
79664;SDS011;69132;44.014;20.918;2023-05-29T13:07:33;4.85;;;4.45;;
79664;SDS011;69132;44.014;20.918;2023-05-29T13:10:00;4.82;;;4.40;;
79664;SDS011;69132;44.014;20.918;2023-05-29T13:12:27;6.22;;;5.40;;
79664;SDS011;69132;44.014;20.918;2023-05-29T13:14:55;5.43;;;4.63;;
79664;SDS011;69132;44.014;20.918;2023-05-29T13:17:22;4.83;;;4.27;;
79664;SDS011;69132;44.014;20.918;2023-05-29T13:19:52;6.55;;;5.55;;
79664;SDS011;69132;44.014;20.918;2023-05-29T13:22:18;8.43;;;5.97;;
79664;SDS011;69132;44.014;20.918;2023-05-29T13:24:45;5.57;;;5.00;;
79664;SDS011;69132;44.014;20.918;2023-05-29T13:27:11;7.25;;;5.55;;
79664;SDS011;69132;44.014;20.918;2023-05-29T13:29:40;6.43;;;4.88;;
79664;SDS011;69132;44.014;20.918;2023-05-29T13:32:06;5.45;;;4.75;;
79664;SDS011;69132;44.014;20.918;2023-05-29T13:34:33;7.45;;;5.93;;
79664;SDS011;69132;44.014;20.918;2023-05-29T13:37:00;8.10;;;5.20;;
79664;SDS011;69132;44.014;20.918;2023-05-29T13:39:28;5.93;;;5.25;;
79664;SDS011;69132;44.014;20.918;2023-05-29T13:41:55;5.72;;;5.05;;
79664;SDS011;69132;44.014;20.918;2023-05-29T13:44:21;5.57;;;4.70;;
79664;SDS011;69132;44.014;20.918;2023-05-29T13:46:47;9.63;;;7.00;;
79664;SDS011;69132;44.014;20.918;2023-05-29T13:49:13;7.03;;;5.85;;
79664;SDS011;69132;44.014;20.918;2023-05-29T13:51:39;6.63;;;5.43;;
79664;SDS011;69132;44.014;20.918;2023-05-29T13:54:06;7.15;;;5.20;;
79664;SDS011;69132;44.014;20.918;2023-05-29T13:56:32;6.68;;;5.85;;
79664;SDS011;69132;44.014;20.918;2023-05-29T13:58:58;6.85;;;5.03;;
79664;SDS011;69132;44.014;20.918;2023-05-29T14:01:28;8.52;;;6.25;;
79664;SDS011;69132;44.014;20.918;2023-05-29T14:03:55;6.72;;;5.53;;
79664;SDS011;69132;44.014;20.918;2023-05-29T14:06:21;6.28;;;5.28;;
79664;SDS011;69132;44.014;20.918;2023-05-29T14:08:47;5.80;;;5.13;;
79664;SDS011;69132;44.014;20.918;2023-05-29T14:11:13;8.45;;;5.80;;
79664;SDS011;69132;44.014;20.918;2023-05-29T14:13:39;7.18;;;5.90;;
79664;SDS011;69132;44.014;20.918;2023-05-29T14:16:05;9.77;;;6.57;;
79664;SDS011;69132;44.014;20.918;2023-05-29T14:18:31;5.88;;;5.03;;
79664;SDS011;69132;44.014;20.918;2023-05-29T14:20:58;8.07;;;5.70;;
79664;SDS011;69132;44.014;20.918;2023-05-29T14:23:24;6.45;;;5.47;;
79664;SDS011;69132;44.014;20.918;2023-05-29T14:25:50;7.55;;;4.95;;
79664;SDS011;69132;44.014;20.918;2023-05-29T14:28:17;10.52;;;5.13;;
79664;SDS011;69132;44.014;20.918;2023-05-29T14:30:44;6.15;;;5.32;;
79664;SDS011;69132;44.014;20.918;2023-05-29T14:33:10;5.37;;;4.87;;
79664;SDS011;69132;44.014;20.918;2023-05-29T14:35:37;6.05;;;5.07;;
79664;SDS011;69132;44.014;20.918;2023-05-29T14:38:04;6.38;;;5.13;;
79664;SDS011;69132;44.014;20.918;2023-05-29T14:40:30;7.65;;;4.93;;
79664;SDS011;69132;44.014;20.918;2023-05-29T14:42:57;5.70;;;4.85;;
79664;SDS011;69132;44.014;20.918;2023-05-29T14:45:23;7.43;;;5.40;;
79664;SDS011;69132;44.014;20.918;2023-05-29T14:47:51;7.35;;;5.45;;
79664;SDS011;69132;44.014;20.918;2023-05-29T14:50:17;7.95;;;5.30;;
79664;SDS011;69132;44.014;20.918;2023-05-29T14:52:43;5.90;;;4.93;;
79664;SDS011;69132;44.014;20.918;2023-05-29T14:55:10;8.40;;;5.72;;
79664;SDS011;69132;44.014;20.918;2023-05-29T14:57:36;5.45;;;4.35;;
79664;SDS011;69132;44.014;20.918;2023-05-29T15:00:03;7.90;;;5.32;;
79664;SDS011;69132;44.014;20.918;2023-05-29T15:02:31;7.28;;;5.10;;